sensor_id;sensor_type;location;lat;lon;timestamp;temperature;humidity
7576;DHT22;3829;50.798;4.358;2022-10-29T00:00:37;17.20;99.90
7576;DHT22;3829;50.798;4.358;2022-10-29T00:03:03;17.00;99.90
7576;DHT22;3829;50.798;4.358;2022-10-29T00:05:28;17.10;99.90
7576;DHT22;3829;50.798;4.358;2022-10-29T00:07:54;17.00;99.90
7576;DHT22;3829;50.798;4.358;2022-10-29T00:10:20;17.10;99.90
7576;DHT22;3829;50.798;4.358;2022-10-29T00:12:45;17.00;99.90
7576;DHT22;3829;50.798;4.358;2022-10-29T00:15:11;17.00;99.90
7576;DHT22;3829;50.798;4.358;2022-10-29T00:17:36;17.00;99.90
7576;DHT22;3829;50.798;4.358;2022-10-29T00:20:03;17.00;99.90
7576;DHT22;3829;50.798;4.358;2022-10-29T00:22:28;16.90;99.90
7576;DHT22;3829;50.798;4.358;2022-10-29T00:24:54;16.90;99.90
7576;DHT22;3829;50.798;4.358;2022-10-29T00:27:19;16.90;99.90
7576;DHT22;3829;50.798;4.358;2022-10-29T00:29:45;16.80;99.90
7576;DHT22;3829;50.798;4.358;2022-10-29T00:32:10;16.80;99.90
7576;DHT22;3829;50.798;4.358;2022-10-29T00:34:36;16.70;99.90
7576;DHT22;3829;50.798;4.358;2022-10-29T00:37:03;16.70;99.90
7576;DHT22;3829;50.798;4.358;2022-10-29T00:39:29;16.70;99.90
7576;DHT22;3829;50.798;4.358;2022-10-29T00:41:55;16.70;99.90
7576;DHT22;3829;50.798;4.358;2022-10-29T00:44:30;16.70;99.90
7576;DHT22;3829;50.798;4.358;2022-10-29T00:47:02;16.70;99.90
7576;DHT22;3829;50.798;4.358;2022-10-29T00:49:34;16.70;99.90
7576;DHT22;3829;50.798;4.358;2022-10-29T00:52:02;16.60;99.90
7576;DHT22;3829;50.798;4.358;2022-10-29T00:54:30;16.60;99.90
7576;DHT22;3829;50.798;4.358;2022-10-29T00:57:02;16.60;99.90
7576;DHT22;3829;50.798;4.358;2022-10-29T00:59:31;16.60;99.90
7576;DHT22;3829;50.798;4.358;2022-10-29T01:01:56;16.60;99.90
7576;DHT22;3829;50.798;4.358;2022-10-29T01:04:23;16.60;99.90
7576;DHT22;3829;50.798;4.358;2022-10-29T01:06:49;16.60;99.90
7576;DHT22;3829;50.798;4.358;2022-10-29T01:09:14;16.50;99.90
7576;DHT22;3829;50.798;4.358;2022-10-29T01:11:58;16.50;99.90
7576;DHT22;3829;50.798;4.358;2022-10-29T01:20:18;16.60;99.90
7576;DHT22;3829;50.798;4.358;2022-10-29T01:28:40;16.70;99.90
7576;DHT22;3829;50.798;4.358;2022-10-29T01:34:10;16.80;99.90
7576;DHT22;3829;50.798;4.358;2022-10-29T01:44:40;16.60;99.90
7576;DHT22;3829;50.798;4.358;2022-10-29T01:47:18;16.60;99.90
7576;DHT22;3829;50.798;4.358;2022-10-29T01:49:50;16.60;99.90
7576;DHT22;3829;50.798;4.358;2022-10-29T01:52:18;16.50;99.90
7576;DHT22;3829;50.798;4.358;2022-10-29T01:54:46;16.30;99.90
7576;DHT22;3829;50.798;4.358;2022-10-29T01:57:26;16.20;99.90
7576;DHT22;3829;50.798;4.358;2022-10-29T01:59:54;16.00;99.90
7576;DHT22;3829;50.798;4.358;2022-10-29T02:05:22;16.00;99.90
7576;DHT22;3829;50.798;4.358;2022-10-29T02:07:54;16.10;99.90
7576;DHT22;3829;50.798;4.358;2022-10-29T02:12:56;15.90;99.90
7576;DHT22;3829;50.798;4.358;2022-10-29T02:18:03;15.80;99.90
7576;DHT22;3829;50.798;4.358;2022-10-29T02:20:29;15.90;99.90
7576;DHT22;3829;50.798;4.358;2022-10-29T02:22:55;15.90;99.90
7576;DHT22;3829;50.798;4.358;2022-10-29T02:25:21;16.00;99.90
7576;DHT22;3829;50.798;4.358;2022-10-29T02:27:46;16.00;99.90
7576;DHT22;3829;50.798;4.358;2022-10-29T02:30:12;16.00;99.90
7576;DHT22;3829;50.798;4.358;2022-10-29T02:32:38;16.20;99.90
7576;DHT22;3829;50.798;4.358;2022-10-29T02:35:04;16.30;99.90
7576;DHT22;3829;50.798;4.358;2022-10-29T02:37:30;16.30;99.90
7576;DHT22;3829;50.798;4.358;2022-10-29T02:39:55;16.30;99.90
7576;DHT22;3829;50.798;4.358;2022-10-29T02:42:21;16.40;99.90
7576;DHT22;3829;50.798;4.358;2022-10-29T02:44:46;16.40;99.90
7576;DHT22;3829;50.798;4.358;2022-10-29T02:47:12;16.40;99.90
7576;DHT22;3829;50.798;4.358;2022-10-29T02:49:37;16.40;99.90
7576;DHT22;3829;50.798;4.358;2022-10-29T02:52:03;16.50;99.90
7576;DHT22;3829;50.798;4.358;2022-10-29T02:54:29;16.50;99.90
7576;DHT22;3829;50.798;4.358;2022-10-29T02:56:54;16.60;99.90
7576;DHT22;3829;50.798;4.358;2022-10-29T02:59:20;16.60;99.90
7576;DHT22;3829;50.798;4.358;2022-10-29T03:01:45;16.70;99.90
7576;DHT22;3829;50.798;4.358;2022-10-29T03:04:11;16.70;99.90
7576;DHT22;3829;50.798;4.358;2022-10-29T03:06:37;16.70;99.90
7576;DHT22;3829;50.798;4.358;2022-10-29T03:09:03;16.70;99.90
7576;DHT22;3829;50.798;4.358;2022-10-29T03:11:29;16.70;99.90
7576;DHT22;3829;50.798;4.358;2022-10-29T03:13:54;16.70;99.90
7576;DHT22;3829;50.798;4.358;2022-10-29T03:16:20;16.70;99.90
7576;DHT22;3829;50.798;4.358;2022-10-29T03:18:46;16.70;99.90
7576;DHT22;3829;50.798;4.358;2022-10-29T03:21:11;16.80;99.90
7576;DHT22;3829;50.798;4.358;2022-10-29T03:23:37;16.80;99.90
7576;DHT22;3829;50.798;4.358;2022-10-29T03:26:02;16.80;99.90
7576;DHT22;3829;50.798;4.358;2022-10-29T03:28:28;16.70;99.90
7576;DHT22;3829;50.798;4.358;2022-10-29T03:30:55;16.70;99.90
7576;DHT22;3829;50.798;4.358;2022-10-29T03:33:22;16.80;99.90
7576;DHT22;3829;50.798;4.358;2022-10-29T03:35:57;16.80;99.90
7576;DHT22;3829;50.798;4.358;2022-10-29T03:38:23;16.80;99.90
7576;DHT22;3829;50.798;4.358;2022-10-29T03:40:49;16.80;99.90
7576;DHT22;3829;50.798;4.358;2022-10-29T03:43:14;16.90;99.90
7576;DHT22;3829;50.798;4.358;2022-10-29T03:45:40;16.90;99.90
7576;DHT22;3829;50.798;4.358;2022-10-29T03:48:06;17.00;99.90
7576;DHT22;3829;50.798;4.358;2022-10-29T03:50:31;17.00;99.90
7576;DHT22;3829;50.798;4.358;2022-10-29T03:52:57;17.00;99.90
7576;DHT22;3829;50.798;4.358;2022-10-29T03:55:22;17.00;99.90
7576;DHT22;3829;50.798;4.358;2022-10-29T03:57:48;16.90;99.90
7576;DHT22;3829;50.798;4.358;2022-10-29T04:00:14;16.90;99.90
7576;DHT22;3829;50.798;4.358;2022-10-29T04:02:40;16.80;99.90
7576;DHT22;3829;50.798;4.358;2022-10-29T04:05:05;16.80;99.90
7576;DHT22;3829;50.798;4.358;2022-10-29T04:07:31;16.90;99.90
7576;DHT22;3829;50.798;4.358;2022-10-29T04:09:57;16.90;99.90
7576;DHT22;3829;50.798;4.358;2022-10-29T04:12:22;16.90;99.90
7576;DHT22;3829;50.798;4.358;2022-10-29T04:14:48;16.80;99.90
7576;DHT22;3829;50.798;4.358;2022-10-29T04:17:13;16.80;99.90
7576;DHT22;3829;50.798;4.358;2022-10-29T04:19:39;16.70;99.90
7576;DHT22;3829;50.798;4.358;2022-10-29T04:22:05;16.70;99.90
7576;DHT22;3829;50.798;4.358;2022-10-29T04:24:31;16.70;99.90
7576;DHT22;3829;50.798;4.358;2022-10-29T04:26:56;16.70;99.90
7576;DHT22;3829;50.798;4.358;2022-10-29T04:29:22;16.70;99.90
7576;DHT22;3829;50.798;4.358;2022-10-29T04:31:48;16.60;99.90
7576;DHT22;3829;50.798;4.358;2022-10-29T04:34:13;16.60;99.90
7576;DHT22;3829;50.798;4.358;2022-10-29T04:36:39;16.70;99.90
7576;DHT22;3829;50.798;4.358;2022-10-29T04:39:05;16.70;99.90
7576;DHT22;3829;50.798;4.358;2022-10-29T04:41:30;16.80;99.90
7576;DHT22;3829;50.798;4.358;2022-10-29T04:43:56;16.80;99.90
7576;DHT22;3829;50.798;4.358;2022-10-29T04:46:21;16.80;99.90
7576;DHT22;3829;50.798;4.358;2022-10-29T04:48:47;16.80;99.90
7576;DHT22;3829;50.798;4.358;2022-10-29T04:51:20;16.90;99.90
7576;DHT22;3829;50.798;4.358;2022-10-29T04:53:46;16.90;99.90
7576;DHT22;3829;50.798;4.358;2022-10-29T04:56:11;17.00;99.90
7576;DHT22;3829;50.798;4.358;2022-10-29T04:58:37;16.90;99.90
7576;DHT22;3829;50.798;4.358;2022-10-29T05:01:03;16.90;99.90
7576;DHT22;3829;50.798;4.358;2022-10-29T05:03:30;16.90;99.90
7576;DHT22;3829;50.798;4.358;2022-10-29T05:05:56;16.90;99.90
7576;DHT22;3829;50.798;4.358;2022-10-29T05:08:21;16.90;99.90
7576;DHT22;3829;50.798;4.358;2022-10-29T05:10:47;17.10;99.90
7576;DHT22;3829;50.798;4.358;2022-10-29T05:13:13;17.10;99.90
7576;DHT22;3829;50.798;4.358;2022-10-29T05:15:39;16.90;99.90
7576;DHT22;3829;50.798;4.358;2022-10-29T05:18:05;17.00;99.90
7576;DHT22;3829;50.798;4.358;2022-10-29T05:20:31;17.00;99.90
7576;DHT22;3829;50.798;4.358;2022-10-29T05:23:01;17.00;99.90
7576;DHT22;3829;50.798;4.358;2022-10-29T05:25:29;17.00;99.90
7576;DHT22;3829;50.798;4.358;2022-10-29T05:30:25;16.90;99.90
7576;DHT22;3829;50.798;4.358;2022-10-29T05:32:50;16.90;99.90
7576;DHT22;3829;50.798;4.358;2022-10-29T05:35:16;16.90;99.90
7576;DHT22;3829;50.798;4.358;2022-10-29T05:37:41;16.80;99.90
7576;DHT22;3829;50.798;4.358;2022-10-29T05:40:07;16.80;99.90
7576;DHT22;3829;50.798;4.358;2022-10-29T05:42:36;16.70;99.90
7576;DHT22;3829;50.798;4.358;2022-10-29T05:45:02;16.70;99.90
7576;DHT22;3829;50.798;4.358;2022-10-29T05:47:28;16.60;99.90
7576;DHT22;3829;50.798;4.358;2022-10-29T05:49:53;16.50;99.90
7576;DHT22;3829;50.798;4.358;2022-10-29T05:52:19;16.50;99.90
7576;DHT22;3829;50.798;4.358;2022-10-29T05:54:44;16.50;99.90
7576;DHT22;3829;50.798;4.358;2022-10-29T05:57:10;16.40;99.90
7576;DHT22;3829;50.798;4.358;2022-10-29T05:59:35;16.50;99.90
7576;DHT22;3829;50.798;4.358;2022-10-29T06:02:01;16.50;99.90
7576;DHT22;3829;50.798;4.358;2022-10-29T06:04:26;16.40;99.90
7576;DHT22;3829;50.798;4.358;2022-10-29T06:06:52;16.40;99.90
7576;DHT22;3829;50.798;4.358;2022-10-29T06:09:17;16.40;99.90
7576;DHT22;3829;50.798;4.358;2022-10-29T06:11:43;16.30;99.90
7576;DHT22;3829;50.798;4.358;2022-10-29T06:14:08;16.20;99.90
7576;DHT22;3829;50.798;4.358;2022-10-29T06:16:34;16.20;99.90
7576;DHT22;3829;50.798;4.358;2022-10-29T06:19:00;16.20;99.90
7576;DHT22;3829;50.798;4.358;2022-10-29T06:21:25;16.10;99.90
7576;DHT22;3829;50.798;4.358;2022-10-29T06:23:51;16.10;99.90
7576;DHT22;3829;50.798;4.358;2022-10-29T06:26:18;16.10;99.90
7576;DHT22;3829;50.798;4.358;2022-10-29T06:28:44;16.10;99.90
7576;DHT22;3829;50.798;4.358;2022-10-29T06:31:09;16.20;99.90
7576;DHT22;3829;50.798;4.358;2022-10-29T06:33:35;16.20;99.90
7576;DHT22;3829;50.798;4.358;2022-10-29T06:36:00;16.10;99.90
7576;DHT22;3829;50.798;4.358;2022-10-29T06:38:26;16.10;99.90
7576;DHT22;3829;50.798;4.358;2022-10-29T06:40:52;16.20;99.90
7576;DHT22;3829;50.798;4.358;2022-10-29T06:43:18;16.20;99.90
7576;DHT22;3829;50.798;4.358;2022-10-29T06:45:43;16.30;99.90
7576;DHT22;3829;50.798;4.358;2022-10-29T06:48:09;16.40;99.90
7576;DHT22;3829;50.798;4.358;2022-10-29T06:50:34;16.40;99.90
7576;DHT22;3829;50.798;4.358;2022-10-29T06:53:05;16.40;99.90
7576;DHT22;3829;50.798;4.358;2022-10-29T06:55:32;16.50;99.90
7576;DHT22;3829;50.798;4.358;2022-10-29T06:58:05;16.50;99.90
7576;DHT22;3829;50.798;4.358;2022-10-29T07:00:31;16.50;99.90
7576;DHT22;3829;50.798;4.358;2022-10-29T07:02:58;16.70;99.90
7576;DHT22;3829;50.798;4.358;2022-10-29T07:05:23;16.70;99.90
7576;DHT22;3829;50.798;4.358;2022-10-29T07:07:57;16.70;99.90
7576;DHT22;3829;50.798;4.358;2022-10-29T07:10:23;16.80;99.90
7576;DHT22;3829;50.798;4.358;2022-10-29T07:12:49;16.90;99.90
7576;DHT22;3829;50.798;4.358;2022-10-29T07:15:15;16.90;99.90
7576;DHT22;3829;50.798;4.358;2022-10-29T07:17:40;16.80;99.90
7576;DHT22;3829;50.798;4.358;2022-10-29T07:20:08;17.00;99.90
7576;DHT22;3829;50.798;4.358;2022-10-29T07:22:34;17.10;99.90
7576;DHT22;3829;50.798;4.358;2022-10-29T07:25:00;17.20;99.90
7576;DHT22;3829;50.798;4.358;2022-10-29T07:27:27;17.30;99.90
7576;DHT22;3829;50.798;4.358;2022-10-29T07:29:52;17.40;99.90
7576;DHT22;3829;50.798;4.358;2022-10-29T07:32:18;17.50;99.90
7576;DHT22;3829;50.798;4.358;2022-10-29T07:34:45;17.60;99.90
7576;DHT22;3829;50.798;4.358;2022-10-29T07:37:10;17.60;99.90
7576;DHT22;3829;50.798;4.358;2022-10-29T07:39:36;17.70;99.90
7576;DHT22;3829;50.798;4.358;2022-10-29T07:42:01;17.70;99.90
7576;DHT22;3829;50.798;4.358;2022-10-29T07:44:27;17.80;99.90
7576;DHT22;3829;50.798;4.358;2022-10-29T07:46:52;17.90;99.90
7576;DHT22;3829;50.798;4.358;2022-10-29T07:49:18;18.00;99.90
7576;DHT22;3829;50.798;4.358;2022-10-29T07:51:43;18.10;99.90
7576;DHT22;3829;50.798;4.358;2022-10-29T07:54:09;18.20;99.90
7576;DHT22;3829;50.798;4.358;2022-10-29T07:56:34;18.20;99.90
7576;DHT22;3829;50.798;4.358;2022-10-29T07:59:00;18.30;99.90
7576;DHT22;3829;50.798;4.358;2022-10-29T08:01:26;18.20;99.90
7576;DHT22;3829;50.798;4.358;2022-10-29T08:03:51;18.10;99.90
7576;DHT22;3829;50.798;4.358;2022-10-29T08:06:17;18.20;99.90
7576;DHT22;3829;50.798;4.358;2022-10-29T08:08:42;18.10;99.90
7576;DHT22;3829;50.798;4.358;2022-10-29T08:11:08;18.20;99.90
7576;DHT22;3829;50.798;4.358;2022-10-29T08:13:34;18.10;99.90
7576;DHT22;3829;50.798;4.358;2022-10-29T08:15:59;18.10;99.90
7576;DHT22;3829;50.798;4.358;2022-10-29T08:18:25;18.10;99.90
7576;DHT22;3829;50.798;4.358;2022-10-29T08:20:51;18.20;99.90
7576;DHT22;3829;50.798;4.358;2022-10-29T08:23:16;18.10;99.90
7576;DHT22;3829;50.798;4.358;2022-10-29T08:25:43;18.10;99.90
7576;DHT22;3829;50.798;4.358;2022-10-29T08:28:13;18.20;99.90
7576;DHT22;3829;50.798;4.358;2022-10-29T08:30:40;18.30;99.90
7576;DHT22;3829;50.798;4.358;2022-10-29T08:33:06;18.40;99.90
7576;DHT22;3829;50.798;4.358;2022-10-29T08:35:32;18.60;99.90
7576;DHT22;3829;50.798;4.358;2022-10-29T08:37:58;18.60;99.90
7576;DHT22;3829;50.798;4.358;2022-10-29T08:43:24;18.80;99.90
7576;DHT22;3829;50.798;4.358;2022-10-29T08:45:55;19.10;99.90
7576;DHT22;3829;50.798;4.358;2022-10-29T08:51:14;19.30;99.90
7576;DHT22;3829;50.798;4.358;2022-10-29T08:53:46;19.20;99.90
7576;DHT22;3829;50.798;4.358;2022-10-29T08:56:25;19.10;99.90
7576;DHT22;3829;50.798;4.358;2022-10-29T09:01:23;19.30;99.90
7576;DHT22;3829;50.798;4.358;2022-10-29T09:03:50;19.40;99.90
7576;DHT22;3829;50.798;4.358;2022-10-29T09:22:57;19.90;99.90
7576;DHT22;3829;50.798;4.358;2022-10-29T09:25:38;19.90;99.90
7576;DHT22;3829;50.798;4.358;2022-10-29T09:28:35;20.00;99.90
7576;DHT22;3829;50.798;4.358;2022-10-29T09:31:15;20.00;99.90
7576;DHT22;3829;50.798;4.358;2022-10-29T09:33:44;19.90;99.90
7576;DHT22;3829;50.798;4.358;2022-10-29T09:36:20;19.90;99.90
7576;DHT22;3829;50.798;4.358;2022-10-29T09:41:33;19.90;99.90
7576;DHT22;3829;50.798;4.358;2022-10-29T09:44:06;19.90;99.90
7576;DHT22;3829;50.798;4.358;2022-10-29T09:46:59;20.10;99.90
7576;DHT22;3829;50.798;4.358;2022-10-29T09:49:41;20.30;99.90
7576;DHT22;3829;50.798;4.358;2022-10-29T09:52:18;20.40;99.90
7576;DHT22;3829;50.798;4.358;2022-10-29T09:54:47;20.50;99.90
7576;DHT22;3829;50.798;4.358;2022-10-29T09:57:21;20.70;99.90
7576;DHT22;3829;50.798;4.358;2022-10-29T10:00:00;20.80;99.90
7576;DHT22;3829;50.798;4.358;2022-10-29T10:02:41;21.00;99.90
7576;DHT22;3829;50.798;4.358;2022-10-29T10:05:18;21.20;99.90
7576;DHT22;3829;50.798;4.358;2022-10-29T10:08:10;21.30;99.90
7576;DHT22;3829;50.798;4.358;2022-10-29T10:10:51;21.50;99.90
7576;DHT22;3829;50.798;4.358;2022-10-29T10:13:52;21.50;99.90
7576;DHT22;3829;50.798;4.358;2022-10-29T10:16:10;21.70;99.90
7576;DHT22;3829;50.798;4.358;2022-10-29T10:18:40;21.80;99.90
7576;DHT22;3829;50.798;4.358;2022-10-29T10:21:25;21.90;99.90
7576;DHT22;3829;50.798;4.358;2022-10-29T10:23:52;22.00;99.90
7576;DHT22;3829;50.798;4.358;2022-10-29T10:29:12;22.20;99.90
7576;DHT22;3829;50.798;4.358;2022-10-29T10:32:24;22.40;99.90
7576;DHT22;3829;50.798;4.358;2022-10-29T10:34:34;22.50;99.90
7576;DHT22;3829;50.798;4.358;2022-10-29T10:42:13;22.90;99.90
7576;DHT22;3829;50.798;4.358;2022-10-29T10:44:48;23.00;99.90
7576;DHT22;3829;50.798;4.358;2022-10-29T10:47:19;23.20;99.90
7576;DHT22;3829;50.798;4.358;2022-10-29T10:49:46;23.40;99.90
7576;DHT22;3829;50.798;4.358;2022-10-29T10:52:27;23.50;99.90
7576;DHT22;3829;50.798;4.358;2022-10-29T10:55:08;23.60;99.90
7576;DHT22;3829;50.798;4.358;2022-10-29T10:57:44;23.80;99.90
7576;DHT22;3829;50.798;4.358;2022-10-29T11:00:20;23.90;99.90
7576;DHT22;3829;50.798;4.358;2022-10-29T11:02:53;23.80;99.90
7576;DHT22;3829;50.798;4.358;2022-10-29T11:05:27;24.10;99.90
7576;DHT22;3829;50.798;4.358;2022-10-29T11:07:56;24.20;99.90
7576;DHT22;3829;50.798;4.358;2022-10-29T11:10:30;24.20;99.90
7576;DHT22;3829;50.798;4.358;2022-10-29T11:13:00;24.20;99.90
7576;DHT22;3829;50.798;4.358;2022-10-29T11:18:40;24.00;99.90
7576;DHT22;3829;50.798;4.358;2022-10-29T11:24:29;24.30;99.90
7576;DHT22;3829;50.798;4.358;2022-10-29T11:27:01;24.20;99.90
7576;DHT22;3829;50.798;4.358;2022-10-29T11:35:15;24.50;99.90
7576;DHT22;3829;50.798;4.358;2022-10-29T11:37:49;24.50;99.90
7576;DHT22;3829;50.798;4.358;2022-10-29T11:40:43;24.60;99.90
7576;DHT22;3829;50.798;4.358;2022-10-29T11:43:14;24.70;99.90
7576;DHT22;3829;50.798;4.358;2022-10-29T11:51:12;24.90;99.90
7576;DHT22;3829;50.798;4.358;2022-10-29T11:54:00;25.00;99.90
7576;DHT22;3829;50.798;4.358;2022-10-29T12:11:00;25.40;99.90
7576;DHT22;3829;50.798;4.358;2022-10-29T12:13:41;25.40;99.90
7576;DHT22;3829;50.798;4.358;2022-10-29T12:29:20;25.70;99.90
7576;DHT22;3829;50.798;4.358;2022-10-29T12:34:57;26.10;99.90
7576;DHT22;3829;50.798;4.358;2022-10-29T12:40:30;26.40;99.90
7576;DHT22;3829;50.798;4.358;2022-10-29T12:43:03;26.60;99.90
7576;DHT22;3829;50.798;4.358;2022-10-29T12:45:34;26.60;99.90
7576;DHT22;3829;50.798;4.358;2022-10-29T12:48:17;26.80;99.90
7576;DHT22;3829;50.798;4.358;2022-10-29T12:53:39;26.60;99.90
7576;DHT22;3829;50.798;4.358;2022-10-29T12:56:06;26.60;99.90
7576;DHT22;3829;50.798;4.358;2022-10-29T12:58:54;26.60;99.90
7576;DHT22;3829;50.798;4.358;2022-10-29T13:11:54;26.80;99.90
7576;DHT22;3829;50.798;4.358;2022-10-29T13:14:27;26.70;99.90
7576;DHT22;3829;50.798;4.358;2022-10-29T13:16:57;26.60;99.90
7576;DHT22;3829;50.798;4.358;2022-10-29T13:24:42;26.10;99.90
7576;DHT22;3829;50.798;4.358;2022-10-29T13:29:50;25.80;99.90
7576;DHT22;3829;50.798;4.358;2022-10-29T13:32:36;25.90;99.90
7576;DHT22;3829;50.798;4.358;2022-10-29T13:35:13;25.80;99.90
7576;DHT22;3829;50.798;4.358;2022-10-29T13:43:07;25.90;99.90
7576;DHT22;3829;50.798;4.358;2022-10-29T13:45:35;25.80;99.90
7576;DHT22;3829;50.798;4.358;2022-10-29T13:48:04;25.70;99.90
7576;DHT22;3829;50.798;4.358;2022-10-29T13:50:35;25.50;99.90
7576;DHT22;3829;50.798;4.358;2022-10-29T13:53:05;25.30;99.90
7576;DHT22;3829;50.798;4.358;2022-10-29T13:55:32;25.30;99.90
7576;DHT22;3829;50.798;4.358;2022-10-29T13:58:11;25.20;99.90
7576;DHT22;3829;50.798;4.358;2022-10-29T14:00:39;25.20;99.90
7576;DHT22;3829;50.798;4.358;2022-10-29T14:03:15;25.10;99.90
7576;DHT22;3829;50.798;4.358;2022-10-29T14:05:42;25.00;99.90
7576;DHT22;3829;50.798;4.358;2022-10-29T14:10:53;24.80;99.90
7576;DHT22;3829;50.798;4.358;2022-10-29T14:13:42;24.60;99.90
7576;DHT22;3829;50.798;4.358;2022-10-29T14:16:10;24.50;99.90
7576;DHT22;3829;50.798;4.358;2022-10-29T14:18:38;24.40;99.90
7576;DHT22;3829;50.798;4.358;2022-10-29T14:21:11;24.30;99.90
7576;DHT22;3829;50.798;4.358;2022-10-29T14:23:37;24.30;99.90
7576;DHT22;3829;50.798;4.358;2022-10-29T14:26:14;24.20;99.90
7576;DHT22;3829;50.798;4.358;2022-10-29T14:28:40;24.10;99.90
7576;DHT22;3829;50.798;4.358;2022-10-29T14:31:12;24.00;99.90
7576;DHT22;3829;50.798;4.358;2022-10-29T14:33:40;24.00;99.90
7576;DHT22;3829;50.798;4.358;2022-10-29T14:38:53;23.90;99.90
7576;DHT22;3829;50.798;4.358;2022-10-29T14:41:21;23.70;99.90
7576;DHT22;3829;50.798;4.358;2022-10-29T14:44:04;23.70;99.90
7576;DHT22;3829;50.798;4.358;2022-10-29T14:46:37;23.60;99.90
7576;DHT22;3829;50.798;4.358;2022-10-29T14:49:18;23.50;99.90
7576;DHT22;3829;50.798;4.358;2022-10-29T14:51:56;23.50;99.90
7576;DHT22;3829;50.798;4.358;2022-10-29T14:54:27;23.50;99.90
7576;DHT22;3829;50.798;4.358;2022-10-29T14:57:03;23.40;99.90
7576;DHT22;3829;50.798;4.358;2022-10-29T14:59:31;23.30;99.90
7576;DHT22;3829;50.798;4.358;2022-10-29T15:02:00;23.30;99.90
7576;DHT22;3829;50.798;4.358;2022-10-29T15:04:30;23.30;99.90
7576;DHT22;3829;50.798;4.358;2022-10-29T15:09:47;23.30;99.90
7576;DHT22;3829;50.798;4.358;2022-10-29T15:12:21;23.30;99.90
7576;DHT22;3829;50.798;4.358;2022-10-29T15:14:50;23.30;99.90
7576;DHT22;3829;50.798;4.358;2022-10-29T15:17:28;23.20;99.90
7576;DHT22;3829;50.798;4.358;2022-10-29T15:19:59;23.30;99.90
7576;DHT22;3829;50.798;4.358;2022-10-29T15:22:38;23.20;99.90
7576;DHT22;3829;50.798;4.358;2022-10-29T15:25:07;23.10;99.90
7576;DHT22;3829;50.798;4.358;2022-10-29T15:27:37;23.10;99.90
7576;DHT22;3829;50.798;4.358;2022-10-29T15:30:04;22.90;99.90
7576;DHT22;3829;50.798;4.358;2022-10-29T15:32:30;22.90;99.90
7576;DHT22;3829;50.798;4.358;2022-10-29T15:34:57;22.90;99.90
7576;DHT22;3829;50.798;4.358;2022-10-29T15:37:39;22.90;99.90
7576;DHT22;3829;50.798;4.358;2022-10-29T15:40:15;22.80;99.90
7576;DHT22;3829;50.798;4.358;2022-10-29T15:42:42;22.60;99.90
7576;DHT22;3829;50.798;4.358;2022-10-29T15:45:15;22.60;99.90
7576;DHT22;3829;50.798;4.358;2022-10-29T15:47:55;22.40;99.90
7576;DHT22;3829;50.798;4.358;2022-10-29T15:50:31;22.30;99.90
7576;DHT22;3829;50.798;4.358;2022-10-29T15:52:59;22.10;99.90
7576;DHT22;3829;50.798;4.358;2022-10-29T15:55:31;22.00;99.90
7576;DHT22;3829;50.798;4.358;2022-10-29T15:58:14;22.00;99.90
7576;DHT22;3829;50.798;4.358;2022-10-29T16:00:41;21.90;99.90
7576;DHT22;3829;50.798;4.358;2022-10-29T16:03:17;21.70;99.90
7576;DHT22;3829;50.798;4.358;2022-10-29T16:05:44;21.70;99.90
7576;DHT22;3829;50.798;4.358;2022-10-29T16:08:31;21.70;99.90
7576;DHT22;3829;50.798;4.358;2022-10-29T16:10:58;21.50;99.90
7576;DHT22;3829;50.798;4.358;2022-10-29T16:13:25;21.60;99.90
7576;DHT22;3829;50.798;4.358;2022-10-29T16:15:51;21.40;99.90
7576;DHT22;3829;50.798;4.358;2022-10-29T16:18:17;21.40;99.90
7576;DHT22;3829;50.798;4.358;2022-10-29T16:20:42;21.40;99.90
7576;DHT22;3829;50.798;4.358;2022-10-29T16:23:09;21.40;99.90
7576;DHT22;3829;50.798;4.358;2022-10-29T16:25:35;21.40;99.90
7576;DHT22;3829;50.798;4.358;2022-10-29T16:28:01;21.30;99.90
7576;DHT22;3829;50.798;4.358;2022-10-29T16:30:27;21.30;99.90
7576;DHT22;3829;50.798;4.358;2022-10-29T16:32:53;21.20;99.90
7576;DHT22;3829;50.798;4.358;2022-10-29T16:35:26;21.10;99.90
7576;DHT22;3829;50.798;4.358;2022-10-29T16:37:53;21.10;99.90
7576;DHT22;3829;50.798;4.358;2022-10-29T16:40:21;21.00;99.90
7576;DHT22;3829;50.798;4.358;2022-10-29T16:42:47;20.90;99.90
7576;DHT22;3829;50.798;4.358;2022-10-29T16:45:16;20.90;99.90
7576;DHT22;3829;50.798;4.358;2022-10-29T16:47:42;20.80;99.90
7576;DHT22;3829;50.798;4.358;2022-10-29T16:50:16;20.70;99.90
7576;DHT22;3829;50.798;4.358;2022-10-29T16:52:42;20.70;99.90
7576;DHT22;3829;50.798;4.358;2022-10-29T16:55:08;20.60;99.90
7576;DHT22;3829;50.798;4.358;2022-10-29T16:57:34;20.50;99.90
7576;DHT22;3829;50.798;4.358;2022-10-29T17:00:00;20.50;99.90
7576;DHT22;3829;50.798;4.358;2022-10-29T17:02:25;20.30;99.90
7576;DHT22;3829;50.798;4.358;2022-10-29T17:04:51;20.30;99.90
7576;DHT22;3829;50.798;4.358;2022-10-29T17:07:17;20.20;99.90
7576;DHT22;3829;50.798;4.358;2022-10-29T17:09:42;20.30;99.90
7576;DHT22;3829;50.798;4.358;2022-10-29T17:12:08;20.30;99.90
7576;DHT22;3829;50.798;4.358;2022-10-29T17:14:33;20.40;99.90
7576;DHT22;3829;50.798;4.358;2022-10-29T17:16:59;20.40;99.90
7576;DHT22;3829;50.798;4.358;2022-10-29T17:19:26;20.30;99.90
7576;DHT22;3829;50.798;4.358;2022-10-29T17:21:52;20.10;99.90
7576;DHT22;3829;50.798;4.358;2022-10-29T17:24:18;20.00;99.90
7576;DHT22;3829;50.798;4.358;2022-10-29T17:26:44;20.00;99.90
7576;DHT22;3829;50.798;4.358;2022-10-29T17:29:09;20.00;99.90
7576;DHT22;3829;50.798;4.358;2022-10-29T17:31:35;20.00;99.90
7576;DHT22;3829;50.798;4.358;2022-10-29T17:34:00;20.10;99.90
7576;DHT22;3829;50.798;4.358;2022-10-29T17:36:26;20.10;99.90
7576;DHT22;3829;50.798;4.358;2022-10-29T17:38:52;20.10;99.90
7576;DHT22;3829;50.798;4.358;2022-10-29T17:41:17;20.10;99.90
7576;DHT22;3829;50.798;4.358;2022-10-29T17:43:43;20.10;99.90
7576;DHT22;3829;50.798;4.358;2022-10-29T17:46:08;20.10;99.90
7576;DHT22;3829;50.798;4.358;2022-10-29T17:48:34;20.10;99.90
7576;DHT22;3829;50.798;4.358;2022-10-29T17:51:01;20.00;99.90
7576;DHT22;3829;50.798;4.358;2022-10-29T17:53:28;20.10;99.90
7576;DHT22;3829;50.798;4.358;2022-10-29T17:55:58;20.00;99.90
7576;DHT22;3829;50.798;4.358;2022-10-29T17:58:23;20.00;99.90
7576;DHT22;3829;50.798;4.358;2022-10-29T18:00:49;20.00;99.90
7576;DHT22;3829;50.798;4.358;2022-10-29T18:03:14;20.00;99.90
7576;DHT22;3829;50.798;4.358;2022-10-29T18:05:40;20.00;99.90
7576;DHT22;3829;50.798;4.358;2022-10-29T18:08:06;19.90;99.90
7576;DHT22;3829;50.798;4.358;2022-10-29T18:10:32;20.00;99.90
7576;DHT22;3829;50.798;4.358;2022-10-29T18:12:58;20.00;99.90
7576;DHT22;3829;50.798;4.358;2022-10-29T18:15:24;19.90;99.90
7576;DHT22;3829;50.798;4.358;2022-10-29T18:17:49;19.80;99.90
7576;DHT22;3829;50.798;4.358;2022-10-29T18:20:15;19.70;99.90
7576;DHT22;3829;50.798;4.358;2022-10-29T18:22:41;19.70;99.90
7576;DHT22;3829;50.798;4.358;2022-10-29T18:25:11;19.70;99.90
7576;DHT22;3829;50.798;4.358;2022-10-29T18:27:38;19.70;99.90
7576;DHT22;3829;50.798;4.358;2022-10-29T18:30:05;19.60;99.90
7576;DHT22;3829;50.798;4.358;2022-10-29T18:32:30;19.60;99.90
7576;DHT22;3829;50.798;4.358;2022-10-29T18:34:56;19.60;99.90
7576;DHT22;3829;50.798;4.358;2022-10-29T18:37:22;19.50;99.90
7576;DHT22;3829;50.798;4.358;2022-10-29T18:39:49;19.60;99.90
7576;DHT22;3829;50.798;4.358;2022-10-29T18:42:15;19.50;99.90
7576;DHT22;3829;50.798;4.358;2022-10-29T18:44:41;19.40;99.90
7576;DHT22;3829;50.798;4.358;2022-10-29T18:47:06;19.30;99.90